sensor_id;sensor_type;location;lat;lon;timestamp;P1;durP1;ratioP1;P2;durP2;ratioP2
71265;SDS011;59030;52.052;8.550;2023-06-10T00:00:29;6.70;;;5.80;;
71265;SDS011;59030;52.052;8.550;2023-06-10T00:02:57;7.77;;;6.60;;
71265;SDS011;59030;52.052;8.550;2023-06-10T00:05:25;7.53;;;5.67;;
71265;SDS011;59030;52.052;8.550;2023-06-10T00:07:54;8.33;;;5.77;;
71265;SDS011;59030;52.052;8.550;2023-06-10T00:10:22;7.20;;;5.70;;
71265;SDS011;59030;52.052;8.550;2023-06-10T00:12:50;7.23;;;5.53;;
71265;SDS011;59030;52.052;8.550;2023-06-10T00:15:17;6.13;;;5.40;;
71265;SDS011;59030;52.052;8.550;2023-06-10T00:17:45;7.27;;;5.30;;
71265;SDS011;59030;52.052;8.550;2023-06-10T00:20:12;7.73;;;5.37;;
71265;SDS011;59030;52.052;8.550;2023-06-10T00:22:39;6.23;;;5.53;;
71265;SDS011;59030;52.052;8.550;2023-06-10T00:25:08;5.87;;;5.10;;
71265;SDS011;59030;52.052;8.550;2023-06-10T00:27:36;5.87;;;5.27;;
71265;SDS011;59030;52.052;8.550;2023-06-10T00:30:04;6.73;;;5.03;;
71265;SDS011;59030;52.052;8.550;2023-06-10T00:32:33;7.37;;;5.30;;
71265;SDS011;59030;52.052;8.550;2023-06-10T00:35:00;5.67;;;5.03;;
71265;SDS011;59030;52.052;8.550;2023-06-10T00:37:27;8.33;;;5.30;;
71265;SDS011;59030;52.052;8.550;2023-06-10T00:39:55;6.63;;;5.13;;
71265;SDS011;59030;52.052;8.550;2023-06-10T00:42:22;7.83;;;5.40;;
71265;SDS011;59030;52.052;8.550;2023-06-10T00:44:50;5.43;;;4.80;;
71265;SDS011;59030;52.052;8.550;2023-06-10T00:47:17;6.90;;;4.80;;
71265;SDS011;59030;52.052;8.550;2023-06-10T00:49:44;6.27;;;4.93;;
71265;SDS011;59030;52.052;8.550;2023-06-10T00:52:12;6.23;;;5.10;;
71265;SDS011;59030;52.052;8.550;2023-06-10T00:54:40;10.90;;;5.37;;
71265;SDS011;59030;52.052;8.550;2023-06-10T00:57:08;5.83;;;4.90;;
71265;SDS011;59030;52.052;8.550;2023-06-10T00:59:35;5.43;;;4.77;;
71265;SDS011;59030;52.052;8.550;2023-06-10T01:02:03;7.03;;;5.07;;
71265;SDS011;59030;52.052;8.550;2023-06-10T01:04:30;7.07;;;4.83;;
71265;SDS011;59030;52.052;8.550;2023-06-10T01:07:02;5.67;;;4.67;;
71265;SDS011;59030;52.052;8.550;2023-06-10T01:09:29;6.33;;;4.93;;
71265;SDS011;59030;52.052;8.550;2023-06-10T01:11:57;4.90;;;4.40;;
71265;SDS011;59030;52.052;8.550;2023-06-10T01:14:25;5.43;;;4.40;;
71265;SDS011;59030;52.052;8.550;2023-06-10T01:16:53;6.10;;;4.70;;
71265;SDS011;59030;52.052;8.550;2023-06-10T01:19:20;6.20;;;4.80;;
71265;SDS011;59030;52.052;8.550;2023-06-10T01:21:49;6.93;;;5.23;;
71265;SDS011;59030;52.052;8.550;2023-06-10T01:24:17;5.27;;;4.60;;
71265;SDS011;59030;52.052;8.550;2023-06-10T01:26:45;6.23;;;4.90;;
71265;SDS011;59030;52.052;8.550;2023-06-10T01:29:14;7.07;;;5.30;;
71265;SDS011;59030;52.052;8.550;2023-06-10T01:31:44;6.47;;;4.97;;
71265;SDS011;59030;52.052;8.550;2023-06-10T01:34:12;6.70;;;4.90;;
71265;SDS011;59030;52.052;8.550;2023-06-10T01:36:41;5.90;;;4.70;;
71265;SDS011;59030;52.052;8.550;2023-06-10T01:39:09;5.93;;;4.90;;
71265;SDS011;59030;52.052;8.550;2023-06-10T01:41:38;7.17;;;4.90;;
71265;SDS011;59030;52.052;8.550;2023-06-10T01:44:06;7.37;;;4.67;;
71265;SDS011;59030;52.052;8.550;2023-06-10T01:46:33;6.13;;;4.63;;
71265;SDS011;59030;52.052;8.550;2023-06-10T01:49:00;6.57;;;5.17;;
71265;SDS011;59030;52.052;8.550;2023-06-10T01:51:27;6.13;;;4.60;;
71265;SDS011;59030;52.052;8.550;2023-06-10T01:53:56;5.23;;;4.60;;
71265;SDS011;59030;52.052;8.550;2023-06-10T01:56:24;7.60;;;5.00;;
71265;SDS011;59030;52.052;8.550;2023-06-10T01:58:51;6.03;;;4.60;;
71265;SDS011;59030;52.052;8.550;2023-06-10T02:01:20;5.63;;;4.70;;
71265;SDS011;59030;52.052;8.550;2023-06-10T02:03:47;6.40;;;4.93;;
71265;SDS011;59030;52.052;8.550;2023-06-10T02:06:14;6.60;;;4.90;;
71265;SDS011;59030;52.052;8.550;2023-06-10T02:08:41;5.37;;;4.50;;
71265;SDS011;59030;52.052;8.550;2023-06-10T02:11:08;6.63;;;4.73;;
71265;SDS011;59030;52.052;8.550;2023-06-10T02:13:37;5.27;;;4.40;;
71265;SDS011;59030;52.052;8.550;2023-06-10T02:16:05;6.37;;;4.60;;
71265;SDS011;59030;52.052;8.550;2023-06-10T02:18:32;5.03;;;4.40;;
71265;SDS011;59030;52.052;8.550;2023-06-10T02:20:59;5.90;;;4.93;;
71265;SDS011;59030;52.052;8.550;2023-06-10T02:23:27;5.97;;;4.70;;
71265;SDS011;59030;52.052;8.550;2023-06-10T02:25:54;7.23;;;4.53;;
71265;SDS011;59030;52.052;8.550;2023-06-10T02:28:21;5.70;;;4.83;;
71265;SDS011;59030;52.052;8.550;2023-06-10T02:30:49;7.23;;;4.87;;
71265;SDS011;59030;52.052;8.550;2023-06-10T02:33:16;9.67;;;4.90;;
71265;SDS011;59030;52.052;8.550;2023-06-10T02:35:44;5.73;;;4.60;;
71265;SDS011;59030;52.052;8.550;2023-06-10T02:38:11;6.13;;;4.77;;
71265;SDS011;59030;52.052;8.550;2023-06-10T02:40:39;8.17;;;4.50;;
71265;SDS011;59030;52.052;8.550;2023-06-10T02:43:06;7.17;;;4.60;;
71265;SDS011;59030;52.052;8.550;2023-06-10T02:45:33;7.20;;;4.70;;
71265;SDS011;59030;52.052;8.550;2023-06-10T02:48:01;7.27;;;4.43;;
71265;SDS011;59030;52.052;8.550;2023-06-10T02:50:28;7.87;;;4.37;;
71265;SDS011;59030;52.052;8.550;2023-06-10T02:52:55;5.30;;;4.40;;
71265;SDS011;59030;52.052;8.550;2023-06-10T02:55:22;6.10;;;4.27;;
71265;SDS011;59030;52.052;8.550;2023-06-10T02:57:52;6.00;;;4.40;;
71265;SDS011;59030;52.052;8.550;2023-06-10T03:00:20;8.03;;;5.03;;
71265;SDS011;59030;52.052;8.550;2023-06-10T03:02:47;5.03;;;4.53;;
71265;SDS011;59030;52.052;8.550;2023-06-10T03:05:15;8.87;;;4.53;;
71265;SDS011;59030;52.052;8.550;2023-06-10T03:07:43;7.73;;;4.37;;
71265;SDS011;59030;52.052;8.550;2023-06-10T03:10:11;5.67;;;4.43;;
71265;SDS011;59030;52.052;8.550;2023-06-10T03:12:39;5.23;;;4.43;;
71265;SDS011;59030;52.052;8.550;2023-06-10T03:15:08;7.97;;;4.67;;
71265;SDS011;59030;52.052;8.550;2023-06-10T03:17:36;5.97;;;4.83;;
71265;SDS011;59030;52.052;8.550;2023-06-10T03:20:03;6.07;;;4.50;;
71265;SDS011;59030;52.052;8.550;2023-06-10T03:22:31;5.73;;;4.10;;
71265;SDS011;59030;52.052;8.550;2023-06-10T03:24:58;5.13;;;4.17;;
71265;SDS011;59030;52.052;8.550;2023-06-10T03:27:26;6.60;;;4.60;;
71265;SDS011;59030;52.052;8.550;2023-06-10T03:29:55;6.37;;;4.40;;
71265;SDS011;59030;52.052;8.550;2023-06-10T03:32:22;5.43;;;4.53;;
71265;SDS011;59030;52.052;8.550;2023-06-10T03:34:49;6.27;;;4.43;;
71265;SDS011;59030;52.052;8.550;2023-06-10T03:37:17;7.83;;;4.33;;
71265;SDS011;59030;52.052;8.550;2023-06-10T03:39:44;6.47;;;4.30;;
71265;SDS011;59030;52.052;8.550;2023-06-10T03:42:11;5.43;;;4.33;;
71265;SDS011;59030;52.052;8.550;2023-06-10T03:44:39;15.77;;;4.60;;
71265;SDS011;59030;52.052;8.550;2023-06-10T03:47:06;5.70;;;4.13;;
71265;SDS011;59030;52.052;8.550;2023-06-10T03:49:33;6.53;;;4.37;;
71265;SDS011;59030;52.052;8.550;2023-06-10T03:52:02;4.97;;;4.07;;
71265;SDS011;59030;52.052;8.550;2023-06-10T03:54:29;8.37;;;4.40;;
71265;SDS011;59030;52.052;8.550;2023-06-10T03:56:57;5.63;;;4.40;;
71265;SDS011;59030;52.052;8.550;2023-06-10T03:59:25;5.17;;;3.93;;
71265;SDS011;59030;52.052;8.550;2023-06-10T04:01:52;5.73;;;4.00;;
71265;SDS011;59030;52.052;8.550;2023-06-10T04:04:19;4.97;;;4.13;;
71265;SDS011;59030;52.052;8.550;2023-06-10T04:06:46;4.30;;;3.90;;
71265;SDS011;59030;52.052;8.550;2023-06-10T04:09:14;6.47;;;4.50;;
71265;SDS011;59030;52.052;8.550;2023-06-10T04:11:42;4.50;;;3.87;;
71265;SDS011;59030;52.052;8.550;2023-06-10T04:14:09;5.97;;;4.20;;
71265;SDS011;59030;52.052;8.550;2023-06-10T04:16:37;6.30;;;4.33;;
71265;SDS011;59030;52.052;8.550;2023-06-10T04:19:04;5.53;;;4.27;;
71265;SDS011;59030;52.052;8.550;2023-06-10T04:21:31;5.50;;;4.00;;
71265;SDS011;59030;52.052;8.550;2023-06-10T04:23:59;5.70;;;4.07;;
71265;SDS011;59030;52.052;8.550;2023-06-10T04:26:26;6.47;;;4.20;;
71265;SDS011;59030;52.052;8.550;2023-06-10T04:28:54;6.23;;;4.03;;
71265;SDS011;59030;52.052;8.550;2023-06-10T04:31:21;5.50;;;4.13;;
71265;SDS011;59030;52.052;8.550;2023-06-10T04:33:49;4.57;;;3.73;;
71265;SDS011;59030;52.052;8.550;2023-06-10T04:36:16;4.33;;;3.63;;
71265;SDS011;59030;52.052;8.550;2023-06-10T04:38:44;6.27;;;4.00;;
71265;SDS011;59030;52.052;8.550;2023-06-10T04:41:11;4.23;;;3.50;;
71265;SDS011;59030;52.052;8.550;2023-06-10T04:43:38;5.50;;;3.83;;
71265;SDS011;59030;52.052;8.550;2023-06-10T04:46:06;5.73;;;3.80;;
71265;SDS011;59030;52.052;8.550;2023-06-10T04:48:33;5.37;;;4.03;;
71265;SDS011;59030;52.052;8.550;2023-06-10T04:51:01;5.70;;;3.73;;
71265;SDS011;59030;52.052;8.550;2023-06-10T04:53:29;6.90;;;3.83;;
71265;SDS011;59030;52.052;8.550;2023-06-10T04:55:56;5.60;;;3.90;;
71265;SDS011;59030;52.052;8.550;2023-06-10T04:58:24;4.87;;;3.47;;
71265;SDS011;59030;52.052;8.550;2023-06-10T05:00:51;5.40;;;3.83;;
71265;SDS011;59030;52.052;8.550;2023-06-10T05:03:18;6.17;;;3.77;;
71265;SDS011;59030;52.052;8.550;2023-06-10T05:05:45;6.17;;;3.77;;
71265;SDS011;59030;52.052;8.550;2023-06-10T05:08:12;5.40;;;3.60;;
71265;SDS011;59030;52.052;8.550;2023-06-10T05:10:40;6.50;;;3.70;;
71265;SDS011;59030;52.052;8.550;2023-06-10T05:13:07;4.13;;;3.73;;
71265;SDS011;59030;52.052;8.550;2023-06-10T05:15:34;5.10;;;3.63;;
71265;SDS011;59030;52.052;8.550;2023-06-10T05:18:01;5.93;;;3.70;;
71265;SDS011;59030;52.052;8.550;2023-06-10T05:20:29;4.70;;;3.83;;
71265;SDS011;59030;52.052;8.550;2023-06-10T05:22:57;4.83;;;3.77;;
71265;SDS011;59030;52.052;8.550;2023-06-10T05:25:25;6.87;;;3.87;;
71265;SDS011;59030;52.052;8.550;2023-06-10T05:27:52;4.53;;;3.47;;
71265;SDS011;59030;52.052;8.550;2023-06-10T05:30:20;4.93;;;3.43;;
71265;SDS011;59030;52.052;8.550;2023-06-10T05:32:47;5.03;;;3.80;;
71265;SDS011;59030;52.052;8.550;2023-06-10T05:35:14;4.80;;;3.83;;
71265;SDS011;59030;52.052;8.550;2023-06-10T05:37:42;4.17;;;3.60;;
71265;SDS011;59030;52.052;8.550;2023-06-10T05:40:11;4.90;;;3.93;;
71265;SDS011;59030;52.052;8.550;2023-06-10T05:42:38;5.07;;;4.10;;
71265;SDS011;59030;52.052;8.550;2023-06-10T05:45:07;5.30;;;3.70;;
71265;SDS011;59030;52.052;8.550;2023-06-10T05:47:34;7.53;;;3.80;;
71265;SDS011;59030;52.052;8.550;2023-06-10T05:50:01;4.50;;;3.73;;
71265;SDS011;59030;52.052;8.550;2023-06-10T05:52:30;6.20;;;3.60;;
71265;SDS011;59030;52.052;8.550;2023-06-10T05:54:57;5.73;;;3.80;;
71265;SDS011;59030;52.052;8.550;2023-06-10T05:57:25;5.10;;;3.57;;
71265;SDS011;59030;52.052;8.550;2023-06-10T05:59:52;4.77;;;3.67;;
71265;SDS011;59030;52.052;8.550;2023-06-10T06:02:20;5.87;;;3.77;;
71265;SDS011;59030;52.052;8.550;2023-06-10T06:04:47;6.27;;;3.90;;
71265;SDS011;59030;52.052;8.550;2023-06-10T06:07:14;4.20;;;3.40;;
71265;SDS011;59030;52.052;8.550;2023-06-10T06:09:41;5.97;;;3.80;;
71265;SDS011;59030;52.052;8.550;2023-06-10T06:12:09;7.40;;;3.73;;
71265;SDS011;59030;52.052;8.550;2023-06-10T06:14:37;4.93;;;3.90;;
71265;SDS011;59030;52.052;8.550;2023-06-10T06:17:05;5.80;;;3.90;;
71265;SDS011;59030;52.052;8.550;2023-06-10T06:19:33;4.80;;;3.60;;
71265;SDS011;59030;52.052;8.550;2023-06-10T06:22:00;6.37;;;3.90;;
71265;SDS011;59030;52.052;8.550;2023-06-10T06:24:28;5.67;;;4.10;;
71265;SDS011;59030;52.052;8.550;2023-06-10T06:26:55;5.53;;;3.70;;
71265;SDS011;59030;52.052;8.550;2023-06-10T06:29:23;4.73;;;3.50;;
71265;SDS011;59030;52.052;8.550;2023-06-10T06:31:50;5.37;;;4.00;;
71265;SDS011;59030;52.052;8.550;2023-06-10T06:34:17;5.60;;;3.70;;
71265;SDS011;59030;52.052;8.550;2023-06-10T06:36:44;5.00;;;3.60;;
71265;SDS011;59030;52.052;8.550;2023-06-10T06:39:11;4.60;;;3.67;;
71265;SDS011;59030;52.052;8.550;2023-06-10T06:41:39;4.70;;;3.70;;
71265;SDS011;59030;52.052;8.550;2023-06-10T06:44:07;5.10;;;4.00;;
71265;SDS011;59030;52.052;8.550;2023-06-10T06:46:34;6.43;;;4.00;;
71265;SDS011;59030;52.052;8.550;2023-06-10T06:49:01;4.17;;;3.47;;
71265;SDS011;59030;52.052;8.550;2023-06-10T06:51:28;5.90;;;3.73;;
71265;SDS011;59030;52.052;8.550;2023-06-10T06:53:55;4.77;;;3.77;;
71265;SDS011;59030;52.052;8.550;2023-06-10T06:56:24;4.70;;;3.70;;
71265;SDS011;59030;52.052;8.550;2023-06-10T06:58:53;6.83;;;4.30;;
71265;SDS011;59030;52.052;8.550;2023-06-10T07:01:20;4.93;;;4.00;;
71265;SDS011;59030;52.052;8.550;2023-06-10T07:03:48;6.07;;;3.60;;
71265;SDS011;59030;52.052;8.550;2023-06-10T07:06:15;7.03;;;3.90;;
71265;SDS011;59030;52.052;8.550;2023-06-10T07:08:42;5.73;;;3.90;;
71265;SDS011;59030;52.052;8.550;2023-06-10T07:11:09;5.63;;;3.80;;
71265;SDS011;59030;52.052;8.550;2023-06-10T07:13:37;4.10;;;3.47;;
71265;SDS011;59030;52.052;8.550;2023-06-10T07:16:04;6.83;;;4.30;;
71265;SDS011;59030;52.052;8.550;2023-06-10T07:18:31;5.90;;;3.67;;
71265;SDS011;59030;52.052;8.550;2023-06-10T07:20:59;4.20;;;3.67;;
71265;SDS011;59030;52.052;8.550;2023-06-10T07:23:26;4.17;;;3.60;;
71265;SDS011;59030;52.052;8.550;2023-06-10T07:25:53;6.13;;;3.60;;
71265;SDS011;59030;52.052;8.550;2023-06-10T07:28:20;5.10;;;3.80;;
71265;SDS011;59030;52.052;8.550;2023-06-10T07:30:49;5.27;;;3.67;;
71265;SDS011;59030;52.052;8.550;2023-06-10T07:33:16;6.33;;;3.97;;
71265;SDS011;59030;52.052;8.550;2023-06-10T07:35:43;5.90;;;3.93;;
71265;SDS011;59030;52.052;8.550;2023-06-10T07:38:11;5.93;;;3.60;;
71265;SDS011;59030;52.052;8.550;2023-06-10T07:40:38;4.03;;;3.30;;
71265;SDS011;59030;52.052;8.550;2023-06-10T07:43:05;4.63;;;4.13;;
71265;SDS011;59030;52.052;8.550;2023-06-10T07:45:32;5.10;;;3.53;;
71265;SDS011;59030;52.052;8.550;2023-06-10T07:48:00;5.13;;;3.60;;
71265;SDS011;59030;52.052;8.550;2023-06-10T07:50:27;4.60;;;3.40;;
71265;SDS011;59030;52.052;8.550;2023-06-10T07:52:54;5.23;;;3.40;;
71265;SDS011;59030;52.052;8.550;2023-06-10T07:55:22;4.40;;;3.33;;
71265;SDS011;59030;52.052;8.550;2023-06-10T07:57:51;5.23;;;3.10;;
71265;SDS011;59030;52.052;8.550;2023-06-10T08:00:19;6.53;;;3.83;;
71265;SDS011;59030;52.052;8.550;2023-06-10T08:02:47;5.83;;;3.37;;
71265;SDS011;59030;52.052;8.550;2023-06-10T08:05:14;3.63;;;3.33;;
71265;SDS011;59030;52.052;8.550;2023-06-10T08:07:41;6.50;;;3.50;;
71265;SDS011;59030;52.052;8.550;2023-06-10T08:10:09;4.77;;;4.00;;
71265;SDS011;59030;52.052;8.550;2023-06-10T08:12:37;5.50;;;3.80;;
71265;SDS011;59030;52.052;8.550;2023-06-10T08:15:05;4.93;;;3.50;;
71265;SDS011;59030;52.052;8.550;2023-06-10T08:17:32;5.07;;;3.60;;
71265;SDS011;59030;52.052;8.550;2023-06-10T08:20:00;4.60;;;3.90;;
71265;SDS011;59030;52.052;8.550;2023-06-10T08:22:27;3.93;;;3.27;;
71265;SDS011;59030;52.052;8.550;2023-06-10T08:24:55;4.87;;;3.30;;
71265;SDS011;59030;52.052;8.550;2023-06-10T08:27:22;4.30;;;3.47;;
71265;SDS011;59030;52.052;8.550;2023-06-10T08:29:50;7.47;;;4.00;;
71265;SDS011;59030;52.052;8.550;2023-06-10T08:32:17;5.33;;;3.80;;
71265;SDS011;59030;52.052;8.550;2023-06-10T08:34:44;4.73;;;3.60;;
71265;SDS011;59030;52.052;8.550;2023-06-10T08:37:11;5.17;;;3.60;;
71265;SDS011;59030;52.052;8.550;2023-06-10T08:39:39;5.07;;;3.83;;
71265;SDS011;59030;52.052;8.550;2023-06-10T08:42:10;4.43;;;3.53;;
71265;SDS011;59030;52.052;8.550;2023-06-10T08:44:36;5.33;;;3.77;;
71265;SDS011;59030;52.052;8.550;2023-06-10T08:47:06;4.53;;;3.67;;
71265;SDS011;59030;52.052;8.550;2023-06-10T08:49:34;4.93;;;3.33;;
71265;SDS011;59030;52.052;8.550;2023-06-10T08:52:03;4.40;;;3.50;;
71265;SDS011;59030;52.052;8.550;2023-06-10T08:54:31;5.33;;;3.77;;
71265;SDS011;59030;52.052;8.550;2023-06-10T08:57:00;5.60;;;3.60;;
71265;SDS011;59030;52.052;8.550;2023-06-10T08:59:29;5.93;;;3.63;;
71265;SDS011;59030;52.052;8.550;2023-06-10T09:01:56;6.03;;;3.60;;
71265;SDS011;59030;52.052;8.550;2023-06-10T09:04:24;3.63;;;3.13;;
71265;SDS011;59030;52.052;8.550;2023-06-10T09:06:51;7.13;;;3.47;;
71265;SDS011;59030;52.052;8.550;2023-06-10T09:09:19;3.80;;;3.40;;
71265;SDS011;59030;52.052;8.550;2023-06-10T09:11:47;6.33;;;3.77;;
71265;SDS011;59030;52.052;8.550;2023-06-10T09:14:14;6.77;;;3.80;;
71265;SDS011;59030;52.052;8.550;2023-06-10T09:16:42;4.60;;;3.47;;
71265;SDS011;59030;52.052;8.550;2023-06-10T09:19:11;7.67;;;3.87;;
71265;SDS011;59030;52.052;8.550;2023-06-10T09:21:39;5.10;;;3.50;;
71265;SDS011;59030;52.052;8.550;2023-06-10T09:24:06;5.73;;;3.80;;
71265;SDS011;59030;52.052;8.550;2023-06-10T09:26:33;5.87;;;3.47;;
71265;SDS011;59030;52.052;8.550;2023-06-10T09:29:03;5.07;;;3.90;;
71265;SDS011;59030;52.052;8.550;2023-06-10T09:31:31;5.73;;;4.10;;
71265;SDS011;59030;52.052;8.550;2023-06-10T09:34:05;4.53;;;3.60;;
71265;SDS011;59030;52.052;8.550;2023-06-10T09:36:32;4.07;;;3.60;;
71265;SDS011;59030;52.052;8.550;2023-06-10T09:39:00;4.63;;;3.60;;
71265;SDS011;59030;52.052;8.550;2023-06-10T09:41:32;5.83;;;3.80;;
71265;SDS011;59030;52.052;8.550;2023-06-10T09:44:00;4.30;;;3.90;;
71265;SDS011;59030;52.052;8.550;2023-06-10T09:46:30;5.90;;;3.97;;
71265;SDS011;59030;52.052;8.550;2023-06-10T09:48:58;4.10;;;3.70;;
71265;SDS011;59030;52.052;8.550;2023-06-10T09:51:25;5.40;;;3.80;;
71265;SDS011;59030;52.052;8.550;2023-06-10T09:53:52;5.97;;;3.93;;
71265;SDS011;59030;52.052;8.550;2023-06-10T09:56:20;4.73;;;3.80;;
71265;SDS011;59030;52.052;8.550;2023-06-10T09:58:49;8.23;;;4.33;;
71265;SDS011;59030;52.052;8.550;2023-06-10T10:01:17;7.87;;;4.47;;
71265;SDS011;59030;52.052;8.550;2023-06-10T10:03:45;4.93;;;3.90;;
71265;SDS011;59030;52.052;8.550;2023-06-10T10:06:12;4.97;;;4.03;;
71265;SDS011;59030;52.052;8.550;2023-06-10T10:08:40;7.37;;;4.30;;
71265;SDS011;59030;52.052;8.550;2023-06-10T10:11:07;4.20;;;3.80;;
71265;SDS011;59030;52.052;8.550;2023-06-10T10:13:34;5.30;;;4.23;;
71265;SDS011;59030;52.052;8.550;2023-06-10T10:16:03;4.70;;;4.10;;
71265;SDS011;59030;52.052;8.550;2023-06-10T10:18:31;8.47;;;4.70;;
71265;SDS011;59030;52.052;8.550;2023-06-10T10:21:00;5.07;;;4.57;;
71265;SDS011;59030;52.052;8.550;2023-06-10T10:23:29;6.80;;;4.37;;
71265;SDS011;59030;52.052;8.550;2023-06-10T10:25:57;4.40;;;4.00;;
71265;SDS011;59030;52.052;8.550;2023-06-10T10:28:27;5.17;;;4.30;;
71265;SDS011;59030;52.052;8.550;2023-06-10T10:30:56;5.20;;;4.20;;
71265;SDS011;59030;52.052;8.550;2023-06-10T10:33:25;4.90;;;4.20;;
71265;SDS011;59030;52.052;8.550;2023-06-10T10:35:52;4.30;;;3.90;;
71265;SDS011;59030;52.052;8.550;2023-06-10T10:38:20;5.30;;;4.40;;
71265;SDS011;59030;52.052;8.550;2023-06-10T10:40:48;4.77;;;4.00;;
71265;SDS011;59030;52.052;8.550;2023-06-10T10:43:15;5.40;;;4.07;;
71265;SDS011;59030;52.052;8.550;2023-06-10T10:45:45;4.60;;;3.80;;
71265;SDS011;59030;52.052;8.550;2023-06-10T10:48:12;4.23;;;3.57;;
71265;SDS011;59030;52.052;8.550;2023-06-10T10:50:41;5.67;;;3.87;;
71265;SDS011;59030;52.052;8.550;2023-06-10T10:53:08;4.87;;;3.83;;
71265;SDS011;59030;52.052;8.550;2023-06-10T10:55:36;4.67;;;3.63;;
71265;SDS011;59030;52.052;8.550;2023-06-10T10:58:03;7.20;;;3.77;;
71265;SDS011;59030;52.052;8.550;2023-06-10T11:00:31;4.07;;;3.50;;
71265;SDS011;59030;52.052;8.550;2023-06-10T11:02:59;4.40;;;3.77;;
71265;SDS011;59030;52.052;8.550;2023-06-10T11:05:36;3.85;;;3.50;;
71265;SDS011;59030;52.052;8.550;2023-06-10T11:08:04;4.07;;;3.60;;
71265;SDS011;59030;52.052;8.550;2023-06-10T11:10:32;4.57;;;3.70;;
71265;SDS011;59030;52.052;8.550;2023-06-10T11:12:59;4.37;;;3.57;;
71265;SDS011;59030;52.052;8.550;2023-06-10T11:15:27;4.87;;;3.67;;
71265;SDS011;59030;52.052;8.550;2023-06-10T11:18:07;7.33;;;3.97;;
71265;SDS011;59030;52.052;8.550;2023-06-10T11:20:42;7.90;;;3.50;;
71265;SDS011;59030;52.052;8.550;2023-06-10T11:23:09;5.23;;;3.70;;
71265;SDS011;59030;52.052;8.550;2023-06-10T11:25:38;4.57;;;3.60;;
71265;SDS011;59030;52.052;8.550;2023-06-10T11:28:17;6.03;;;4.57;;
71265;SDS011;59030;52.052;8.550;2023-06-10T11:30:45;4.43;;;3.60;;
71265;SDS011;59030;52.052;8.550;2023-06-10T11:33:14;3.90;;;3.33;;
71265;SDS011;59030;52.052;8.550;2023-06-10T11:35:41;6.30;;;3.72;;
71265;SDS011;59030;52.052;8.550;2023-06-10T11:38:09;5.07;;;3.83;;
71265;SDS011;59030;52.052;8.550;2023-06-10T11:40:36;4.03;;;3.63;;
71265;SDS011;59030;52.052;8.550;2023-06-10T11:43:04;4.17;;;3.60;;
71265;SDS011;59030;52.052;8.550;2023-06-10T11:45:31;4.47;;;3.50;;
71265;SDS011;59030;52.052;8.550;2023-06-10T11:47:59;5.22;;;3.50;;
71265;SDS011;59030;52.052;8.550;2023-06-10T11:50:30;3.67;;;3.17;;
71265;SDS011;59030;52.052;8.550;2023-06-10T11:52:57;3.57;;;3.13;;
71265;SDS011;59030;52.052;8.550;2023-06-10T11:55:25;4.75;;;3.27;;
71265;SDS011;59030;52.052;8.550;2023-06-10T11:57:52;3.53;;;3.10;;
71265;SDS011;59030;52.052;8.550;2023-06-10T12:00:21;3.60;;;3.00;;
71265;SDS011;59030;52.052;8.550;2023-06-10T12:02:54;4.15;;;3.30;;
71265;SDS011;59030;52.052;8.550;2023-06-10T12:05:23;4.37;;;3.37;;
71265;SDS011;59030;52.052;8.550;2023-06-10T12:07:51;4.35;;;3.30;;
71265;SDS011;59030;52.052;8.550;2023-06-10T12:10:19;4.33;;;3.40;;
71265;SDS011;59030;52.052;8.550;2023-06-10T12:12:46;5.03;;;3.45;;
71265;SDS011;59030;52.052;8.550;2023-06-10T12:15:22;4.08;;;3.30;;
71265;SDS011;59030;52.052;8.550;2023-06-10T12:17:43;4.00;;;3.40;;
71265;SDS011;59030;52.052;8.550;2023-06-10T12:20:24;4.05;;;3.65;;
71265;SDS011;59030;52.052;8.550;2023-06-10T12:22:39;4.90;;;3.30;;
71265;SDS011;59030;52.052;8.550;2023-06-10T12:25:08;4.90;;;3.80;;
71265;SDS011;59030;52.052;8.550;2023-06-10T12:27:35;6.42;;;3.90;;
71265;SDS011;59030;52.052;8.550;2023-06-10T12:30:04;4.65;;;3.47;;
71265;SDS011;59030;52.052;8.550;2023-06-10T12:32:38;3.67;;;3.37;;
71265;SDS011;59030;52.052;8.550;2023-06-10T12:35:07;4.62;;;3.40;;
71265;SDS011;59030;52.052;8.550;2023-06-10T12:37:34;4.40;;;3.40;;
71265;SDS011;59030;52.052;8.550;2023-06-10T12:40:03;3.62;;;3.33;;
71265;SDS011;59030;52.052;8.550;2023-06-10T12:42:32;5.08;;;4.20;;
71265;SDS011;59030;52.052;8.550;2023-06-10T12:45:01;4.13;;;3.50;;
71265;SDS011;59030;52.052;8.550;2023-06-10T12:47:32;5.58;;;3.80;;
71265;SDS011;59030;52.052;8.550;2023-06-10T12:50:00;5.97;;;3.90;;
71265;SDS011;59030;52.052;8.550;2023-06-10T12:52:28;4.00;;;3.60;;
71265;SDS011;59030;52.052;8.550;2023-06-10T12:54:56;3.77;;;3.47;;
71265;SDS011;59030;52.052;8.550;2023-06-10T12:57:23;4.45;;;3.95;;
71265;SDS011;59030;52.052;8.550;2023-06-10T12:59:50;6.33;;;4.28;;
71265;SDS011;59030;52.052;8.550;2023-06-10T13:02:18;4.17;;;3.50;;
71265;SDS011;59030;52.052;8.550;2023-06-10T13:04:46;5.00;;;3.85;;
71265;SDS011;59030;52.052;8.550;2023-06-10T13:07:14;3.80;;;3.47;;
71265;SDS011;59030;52.052;8.550;2023-06-10T13:09:41;5.12;;;3.50;;
71265;SDS011;59030;52.052;8.550;2023-06-10T13:12:09;3.75;;;3.37;;
71265;SDS011;59030;52.052;8.550;2023-06-10T13:14:37;4.80;;;3.42;;
71265;SDS011;59030;52.052;8.550;2023-06-10T13:17:05;5.12;;;3.92;;
71265;SDS011;59030;52.052;8.550;2023-06-10T13:19:32;3.58;;;3.27;;
71265;SDS011;59030;52.052;8.550;2023-06-10T13:22:00;4.62;;;3.52;;
71265;SDS011;59030;52.052;8.550;2023-06-10T13:24:28;4.10;;;3.47;;
71265;SDS011;59030;52.052;8.550;2023-06-10T13:26:55;4.08;;;3.67;;
71265;SDS011;59030;52.052;8.550;2023-06-10T13:29:23;4.03;;;3.62;;
71265;SDS011;59030;52.052;8.550;2023-06-10T13:31:50;4.15;;;3.60;;
71265;SDS011;59030;52.052;8.550;2023-06-10T13:34:17;4.47;;;3.67;;
71265;SDS011;59030;52.052;8.550;2023-06-10T13:36:44;6.22;;;4.37;;
71265;SDS011;59030;52.052;8.550;2023-06-10T13:39:12;5.35;;;4.10;;
71265;SDS011;59030;52.052;8.550;2023-06-10T13:41:40;4.10;;;3.70;;
71265;SDS011;59030;52.052;8.550;2023-06-10T13:44:08;4.92;;;3.80;;
71265;SDS011;59030;52.052;8.550;2023-06-10T13:46:35;4.33;;;3.92;;
71265;SDS011;59030;52.052;8.550;2023-06-10T13:49:02;4.60;;;3.62;;
71265;SDS011;59030;52.052;8.550;2023-06-10T13:51:30;5.75;;;4.28;;
71265;SDS011;59030;52.052;8.550;2023-06-10T13:53:57;4.83;;;3.92;;
71265;SDS011;59030;52.052;8.550;2023-06-10T13:56:25;5.12;;;4.45;;
71265;SDS011;59030;52.052;8.550;2023-06-10T13:58:52;4.75;;;4.03;;
71265;SDS011;59030;52.052;8.550;2023-06-10T14:01:19;5.05;;;4.55;;
71265;SDS011;59030;52.052;8.550;2023-06-10T14:03:46;5.17;;;4.22;;
71265;SDS011;59030;52.052;8.550;2023-06-10T14:06:14;4.12;;;3.72;;
71265;SDS011;59030;52.052;8.550;2023-06-10T14:08:43;4.62;;;4.12;;
71265;SDS011;59030;52.052;8.550;2023-06-10T14:11:10;4.53;;;4.12;;
71265;SDS011;59030;52.052;8.550;2023-06-10T14:13:37;5.15;;;4.22;;
71265;SDS011;59030;52.052;8.550;2023-06-10T14:16:04;4.60;;;3.80;;
71265;SDS011;59030;52.052;8.550;2023-06-10T14:18:32;4.53;;;4.03;;
71265;SDS011;59030;52.052;8.550;2023-06-10T14:20:59;4.75;;;4.00;;
71265;SDS011;59030;52.052;8.550;2023-06-10T14:23:26;4.75;;;4.30;;
71265;SDS011;59030;52.052;8.550;2023-06-10T14:25:53;4.80;;;4.28;;
71265;SDS011;59030;52.052;8.550;2023-06-10T14:28:21;4.40;;;3.98;;
71265;SDS011;59030;52.052;8.550;2023-06-10T14:30:50;4.67;;;4.22;;
71265;SDS011;59030;52.052;8.550;2023-06-10T14:33:17;5.20;;;4.70;;
71265;SDS011;59030;52.052;8.550;2023-06-10T14:35:44;5.10;;;4.10;;
71265;SDS011;59030;52.052;8.550;2023-06-10T14:38:11;5.00;;;4.50;;
71265;SDS011;59030;52.052;8.550;2023-06-10T14:40:38;7.08;;;3.87;;
71265;SDS011;59030;52.052;8.550;2023-06-10T14:43:06;5.08;;;4.58;;
71265;SDS011;59030;52.052;8.550;2023-06-10T14:45:35;5.08;;;4.58;;
71265;SDS011;59030;52.052;8.550;2023-06-10T14:48:03;5.53;;;4.62;;
71265;SDS011;59030;52.052;8.550;2023-06-10T14:50:30;6.00;;;4.83;;